Time;durP1;ratioP1;P1;durP2;ratioP2;P2;SDS_P1;SDS_P2;PMS_P1;PMS_P2;Temp;Humidity;BMP_temperature;BMP_pressure;BME280_temperature;BME280_humidity;BME280_pressure;Samples;Min_cycle;Max_cycle;Signal;HPM_P1;HPM_P2
2021/01/10 00:02:06;;;;;;;30.25;15.23;;;;;;;-3.37;81.28;97000.22;5041503;28;20045;-59
2021/01/10 00:04:32;;;;;;;31.10;15.18;;;;;;;-3.34;81.22;97011.19;5060508;28;20071;-59
2021/01/10 00:06:57;;;;;;;31.42;15.30;;;;;;;-3.36;81.70;97012.53;5051189;28;20049;-58
2021/01/10 00:09:22;;;;;;;34.10;15.25;;;;;;;-3.37;81.58;97003.69;5036966;28;20067;-60
2021/01/10 00:11:48;;;;;;;30.65;14.32;;;;;;;-3.40;81.60;97004.25;5041573;28;20049;-60
2021/01/10 00:14:13;;;;;;;31.38;14.07;;;;;;;-3.38;81.54;96999.41;5018189;28;20564;-60
2021/01/10 00:16:39;;;;;;;30.55;15.50;;;;;;;-3.41;81.83;97001.81;5040968;28;20049;-61
2021/01/10 00:19:06;;;;;;;32.45;17.08;;;;;;;-3.41;81.38;96997.25;5046126;28;20037;-60
2021/01/10 00:21:34;;;;;;;30.60;17.40;;;;;;;-3.37;80.64;96992.16;5057928;28;20086;-62
2021/01/10 00:23:59;;;;;;;30.70;13.95;;;;;;;-3.38;81.30;96995.94;5056146;28;20049;-59
2021/01/10 00:26:33;;;;;;;32.53;15.00;;;;;;;-3.40;81.13;97003.41;5033105;28;20072;-60
2021/01/10 00:29:00;;;;;;;30.67;15.90;;;;;;;-3.40;80.97;96998.88;5040715;28;20045;-60
2021/01/10 00:31:30;;;;;;;30.70;14.73;;;;;;;-3.43;81.44;97002.09;5013667;28;20713;-59
2021/01/10 00:33:56;;;;;;;30.75;15.60;;;;;;;-3.42;81.43;97009.06;5022240;28;20041;-62
2021/01/10 00:36:21;;;;;;;27.95;14.10;;;;;;;-3.36;81.07;97013.34;5017028;28;20539;-60
2021/01/10 00:38:46;;;;;;;30.40;14.77;;;;;;;-3.35;80.46;97020.31;5040652;28;20136;-60
2021/01/10 00:41:12;;;;;;;31.75;15.43;;;;;;;-3.36;80.91;97012.53;5035409;28;20083;-60
2021/01/10 00:43:37;;;;;;;28.00;14.13;;;;;;;-3.35;80.74;97022.16;5045229;28;20044;-60
2021/01/10 00:46:03;;;;;;;26.88;13.05;;;;;;;-3.37;81.17;97027.78;5038525;28;20566;-62
2021/01/10 00:48:28;;;;;;;28.23;13.50;;;;;;;-3.37;80.92;97024.31;5020568;28;20590;-62
2021/01/10 00:50:54;;;;;;;34.30;15.52;;;;;;;-3.37;81.08;97025.09;5041314;28;20048;-60
2021/01/10 00:53:19;;;;;;;28.17;12.82;;;;;;;-3.37;81.05;97024.31;5031062;28;20076;-61
2021/01/10 00:55:45;;;;;;;29.23;15.75;;;;;;;-3.32;80.12;97021.63;5040243;28;20397;-60
2021/01/10 00:58:10;;;;;;;30.23;14.30;;;;;;;-3.36;80.94;97016.00;5035605;28;20119;-60
2021/01/10 01:00:35;;;;;;;27.42;12.98;;;;;;;-3.34;80.90;97016.53;5038178;28;20047;-62
2021/01/10 01:03:01;;;;;;;28.55;14.35;;;;;;;-3.31;79.74;97013.34;5027202;28;20041;-61
2021/01/10 01:05:28;;;;;;;29.50;13.95;;;;;;;-3.29;79.76;97019.22;5035131;28;20056;-61
2021/01/10 01:07:54;;;;;;;29.55;13.20;;;;;;;-3.30;80.39;97024.84;5042694;28;20049;-61
2021/01/10 01:10:19;;;;;;;27.13;14.40;;;;;;;-3.27;79.72;97029.66;5046491;23;20073;-65
2021/01/10 01:12:45;;;;;;;27.40;12.95;;;;;;;-3.29;80.09;97026.47;5026428;28;20057;-66
2021/01/10 01:15:11;;;;;;;26.13;12.90;;;;;;;-3.29;79.49;97037.19;5042588;28;20056;-66
2021/01/10 01:17:36;;;;;;;28.77;13.77;;;;;;;-3.28;79.48;97028.88;5038704;28;20568;-64
2021/01/10 01:20:03;;;;;;;25.48;13.07;;;;;;;-3.29;79.99;97031.81;5037136;28;20132;-69
2021/01/10 01:22:29;;;;;;;27.42;13.65;;;;;;;-3.31;80.32;97025.94;5030370;28;20057;-67
2021/01/10 01:24:54;;;;;;;27.90;14.48;;;;;;;-3.29;79.87;97021.09;5035061;28;20045;-65
2021/01/10 01:27:20;;;;;;;22.40;11.45;;;;;;;-3.22;78.45;97018.97;5013941;28;20761;-65
2021/01/10 01:29:46;;;;;;;24.55;13.52;;;;;;;-3.20;78.16;97029.41;5019559;28;20128;-66
2021/01/10 01:32:11;;;;;;;24.63;11.85;;;;;;;-3.20;78.41;97029.41;5015502;28;20037;-65
2021/01/10 01:34:36;;;;;;;27.75;13.95;;;;;;;-3.24;78.92;97031.81;5021938;28;20492;-64
2021/01/10 01:37:03;;;;;;;26.40;12.35;;;;;;;-3.21;78.69;97039.28;5017483;28;20516;-71
2021/01/10 01:39:29;;;;;;;22.83;12.10;;;;;;;-3.22;78.07;97034.22;5023760;28;20057;-64
2021/01/10 01:41:54;;;;;;;24.98;11.57;;;;;;;-3.22;77.90;97042.25;5027842;28;20168;-66
2021/01/10 01:44:20;;;;;;;30.45;13.65;;;;;;;-3.26;78.93;97041.97;5020031;28;20041;-65
2021/01/10 01:46:45;;;;;;;25.67;12.43;;;;;;;-3.26;78.30;97047.34;5024462;28;20037;-66
2021/01/10 01:49:11;;;;;;;28.60;13.40;;;;;;;-3.25;78.54;97051.63;5017882;28;20099;-64
2021/01/10 01:51:37;;;;;;;23.98;11.68;;;;;;;-3.22;78.01;97053.78;5017796;28;20803;-65
2021/01/10 01:54:07;;;;;;;25.63;12.73;;;;;;;-3.28;78.51;97046.81;5020634;28;20041;-70
2021/01/10 01:56:33;;;;;;;28.67;12.93;;;;;;;-3.30;78.66;97047.06;5022615;28;20517;-67
2021/01/10 01:59:04;;;;;;;23.52;11.98;;;;;;;-3.25;78.03;97050.84;5022960;28;20047;-67
2021/01/10 02:01:31;;;;;;;21.67;10.70;;;;;;;-3.16;76.72;97046.53;5017688;28;20048;-70
2021/01/10 02:04:12;;;;;;;21.50;11.30;;;;;;;-3.21;77.09;97043.84;5022247;28;20041;-68
2021/01/10 02:06:51;;;;;;;22.30;12.02;;;;;;;-3.19;76.58;97041.72;5018220;28;20049;-69
2021/01/10 02:09:18;;;;;;;21.67;10.13;;;;;;;-3.25;77.09;97045.47;5018361;28;20041;-68
2021/01/10 02:11:49;;;;;;;23.48;11.75;;;;;;;-3.28;77.14;97041.44;5042218;28;20052;-69
2021/01/10 02:14:18;;;;;;;18.35;9.48;;;;;;;-3.23;77.42;97038.78;5030833;28;20048;-69
2021/01/10 02:16:44;;;;;;;21.92;11.60;;;;;;;-3.24;76.84;97039.84;5035350;28;20045;-68
2021/01/10 02:19:35;;;;;;;23.60;11.73;;;;;;;-3.22;76.50;97037.72;5036236;28;20044;-69
2021/01/10 02:22:05;;;;;;;23.65;11.90;;;;;;;-3.27;76.94;97043.84;5041941;28;20402;-70
2021/01/10 02:24:34;;;;;;;22.80;11.15;;;;;;;-3.27;76.36;97035.81;5015843;28;20045;-69
2021/01/10 02:27:03;;;;;;;22.98;11.40;;;;;;;-3.29;76.36;97039.84;5032093;28;20037;-69
2021/01/10 02:29:30;;;;;;;21.33;11.37;;;;;;;-3.30;76.52;97039.03;5018909;28;20041;-70
2021/01/10 02:31:58;;;;;;;17.20;10.07;;;;;;;-3.30;76.32;97040.91;5034850;28;20044;-69
2021/01/10 02:34:24;;;;;;;21.92;10.52;;;;;;;-3.37;77.24;97049.22;5034385;28;20762;-70
2021/01/10 02:37:08;;;;;;;22.17;11.27;;;;;;;-3.38;76.51;97047.63;5041664;28;20055;-69
2021/01/10 02:39:45;;;;;;;22.23;11.10;;;;;;;-3.40;76.59;97041.72;5019729;28;20156;-68
2021/01/10 02:42:19;;;;;;;20.75;11.50;;;;;;;-3.36;76.44;97031.28;5014783;28;20045;-69
2021/01/10 02:44:55;;;;;;;22.05;10.50;;;;;;;-3.42;77.46;97040.38;5007767;28;20045;-68
2021/01/10 02:47:20;;;;;;;19.92;10.15;;;;;;;-3.44;77.52;97037.97;4989766;28;20038;-69
2021/01/10 02:49:46;;;;;;;22.98;12.23;;;;;;;-3.45;77.45;97031.00;5000058;28;20038;-69
2021/01/10 02:52:12;;;;;;;22.05;11.27;;;;;;;-3.49;76.99;97029.94;4988625;28;20545;-67
2021/01/10 02:54:37;;;;;;;21.60;11.23;;;;;;;-3.48;76.44;97024.31;5021010;28;20133;-68
2021/01/10 02:57:15;;;;;;;23.15;11.85;;;;;;;-3.43;76.20;97028.88;5017130;28;20111;-66
2021/01/10 02:59:43;;;;;;;25.08;12.13;;;;;;;-3.44;76.05;97024.56;5009191;28;20050;-69
2021/01/10 03:02:13;;;;;;;22.42;11.50;;;;;;;-3.45;76.57;97025.66;5012003;28;20203;-68
2021/01/10 03:04:38;;;;;;;23.17;11.80;;;;;;;-3.47;76.70;97030.47;5026775;28;20112;-68
2021/01/10 03:07:05;;;;;;;19.83;10.02;;;;;;;-3.52;77.43;97027.81;4978863;28;20411;-67
2021/01/10 03:09:31;;;;;;;18.85;10.07;;;;;;;-3.49;76.97;97028.06;5007263;28;20490;-69
2021/01/10 03:12:28;;;;;;;21.13;10.45;;;;;;;-3.55;77.60;97029.13;5020010;28;20128;-70
2021/01/10 03:14:58;;;;;;;23.13;11.10;;;;;;;-3.54;77.14;97027.28;4986776;28;20049;-70
2021/01/10 03:17:57;;;;;;;22.08;11.32;;;;;;;-3.55;77.43;97026.44;4997081;28;20690;-69
2021/01/10 03:20:23;;;;;;;22.40;10.25;;;;;;;-3.55;77.25;97018.41;5012299;28;20118;-69
2021/01/10 03:22:49;;;;;;;21.02;10.55;;;;;;;-3.57;77.48;97020.56;5020611;28;20037;-68
2021/01/10 03:25:18;;;;;;;22.95;10.88;;;;;;;-3.59;77.18;97020.03;4992308;28;20569;-69
2021/01/10 03:27:44;;;;;;;23.17;12.75;;;;;;;-3.60;77.28;97026.47;4992586;28;20049;-70
2021/01/10 03:30:15;;;;;;;22.63;11.38;;;;;;;-3.63;78.12;97031.56;4987804;28;20517;-70
2021/01/10 03:32:41;;;;;;;24.65;11.32;;;;;;;-3.65;77.75;97027.25;4981984;28;20133;-70
2021/01/10 03:35:08;;;;;;;22.35;12.20;;;;;;;-3.63;77.50;97032.34;4993821;28;20073;-70
2021/01/10 03:37:35;;;;;;;20.98;11.07;;;;;;;-3.65;77.67;97035.28;5004773;28;20123;-70
2021/01/10 03:40:00;;;;;;;21.98;10.68;;;;;;;-3.65;77.87;97035.28;5020202;28;20139;-70
2021/01/10 03:42:26;;;;;;;22.38;10.75;;;;;;;-3.64;77.26;97041.44;5000560;28;20465;-69
2021/01/10 03:44:51;;;;;;;24.98;11.43;;;;;;;-3.65;77.74;97029.13;5014760;28;20802;-70
2021/01/10 03:47:17;;;;;;;21.08;10.48;;;;;;;-3.70;78.24;97032.59;5013428;28;20041;-69
2021/01/10 03:49:43;;;;;;;17.90;9.65;;;;;;;-3.69;77.68;97033.41;5017617;28;20557;-69
2021/01/10 03:52:08;;;;;;;22.95;10.93;;;;;;;-3.71;77.52;97031.00;4985467;28;20124;-69
2021/01/10 03:54:34;;;;;;;22.52;11.75;;;;;;;-3.76;78.05;97028.31;4996470;28;20053;-70
2021/01/10 03:56:59;;;;;;;22.08;10.50;;;;;;;-3.81;78.16;97025.63;5000302;28;20049;-70
2021/01/10 03:59:25;;;;;;;26.30;11.60;;;;;;;-3.84;78.09;97026.97;4995476;28;20042;-68
2021/01/10 04:01:50;;;;;;;21.35;11.30;;;;;;;-3.89;77.68;97016.28;4997599;28;20033;-68
2021/01/10 04:04:15;;;;;;;19.80;10.80;;;;;;;-3.95;77.81;97019.19;4997598;28;20045;-68
2021/01/10 04:06:41;;;;;;;22.48;11.80;;;;;;;-3.95;77.60;97025.34;5009549;28;20049;-67
2021/01/10 04:09:06;;;;;;;22.67;11.32;;;;;;;-4.06;78.11;97029.88;5013367;28;20103;-67
2021/01/10 04:11:32;;;;;;;21.98;10.70;;;;;;;-4.12;78.76;97033.59;5011216;28;20115;-67
2021/01/10 04:13:58;;;;;;;24.63;13.23;;;;;;;-4.14;78.00;97019.69;5006077;28;20045;-68
2021/01/10 04:16:23;;;;;;;21.88;10.98;;;;;;;-4.13;77.94;97031.19;4995496;28;20775;-68
2021/01/10 04:18:48;;;;;;;21.40;11.20;;;;;;;-4.14;77.82;97030.41;4999099;28;20050;-67
2021/01/10 04:21:14;;;;;;;23.58;12.48;;;;;;;-4.22;78.20;97021.00;4994805;28;20249;-66
2021/01/10 04:23:40;;;;;;;20.08;10.80;;;;;;;-4.22;78.31;97021.00;4998502;28;20546;-68
2021/01/10 04:26:06;;;;;;;22.52;11.40;;;;;;;-4.27;78.10;97020.19;4997673;28;20030;-64
2021/01/10 04:28:32;;;;;;;21.63;9.77;;;;;;;-4.30;77.99;97026.88;4987211;28;20046;-68
2021/01/10 04:30:59;;;;;;;19.27;9.82;;;;;;;-4.39;78.70;97028.44;5008648;28;20044;-67
2021/01/10 04:33:25;;;;;;;22.60;10.57;;;;;;;-4.44;78.30;97026.56;4994955;28;20042;-69
2021/01/10 04:35:51;;;;;;;20.65;10.25;;;;;;;-4.45;78.81;97024.13;5000533;28;20041;-67
2021/01/10 04:38:16;;;;;;;27.13;12.52;;;;;;;-4.41;78.22;97027.91;4995317;28;20073;-70
2021/01/10 04:40:41;;;;;;;21.13;11.52;;;;;;;-4.44;78.50;97025.75;5000561;28;20046;-67
2021/01/10 04:43:07;;;;;;;19.63;10.07;;;;;;;-4.58;79.13;97021.94;4994870;28;20399;-67
2021/01/10 04:45:33;;;;;;;21.33;10.13;;;;;;;-4.58;78.84;97020.06;5012222;28;20505;-69
2021/01/10 04:47:59;;;;;;;24.38;11.20;;;;;;;-4.64;79.50;97015.78;5017129;28;20053;-69
2021/01/10 04:50:25;;;;;;;19.42;10.30;;;;;;;-4.58;78.74;97011.25;5017333;28;20056;-69
2021/01/10 04:52:53;;;;;;;21.90;12.75;;;;;;;-4.65;79.02;97016.84;5001588;28;20062;-67
2021/01/10 04:55:24;;;;;;;22.90;11.82;;;;;;;-4.75;79.13;97008.75;4987128;28;20042;-68
2021/01/10 04:57:59;;;;;;;18.45;9.73;;;;;;;-4.85;79.30;97015.66;4988417;28;20047;-68
2021/01/10 05:00:25;;;;;;;20.60;10.40;;;;;;;-4.87;79.35;97012.47;4975137;28;20050;-68
2021/01/10 05:02:59;;;;;;;21.40;10.60;;;;;;;-4.89;79.80;97011.91;4980025;28;20057;-66
2021/01/10 05:05:27;;;;;;;23.33;11.02;;;;;;;-4.87;79.31;97014.34;4991564;28;20605;-69
2021/01/10 05:07:53;;;;;;;25.25;11.57;;;;;;;-4.94;79.94;97008.41;4999977;28;20391;-69
2021/01/10 05:10:18;;;;;;;25.10;13.50;;;;;;;-4.87;79.58;97009.00;4994868;28;20042;-69
2021/01/10 05:12:43;;;;;;;27.73;12.93;;;;;;;-4.84;78.91;97009.28;5000213;28;20099;-70
2021/01/10 05:15:09;;;;;;;22.52;11.27;;;;;;;-4.86;79.31;97011.41;5002618;28;20405;-68
2021/01/10 05:17:35;;;;;;;24.90;12.10;;;;;;;-4.93;79.58;97013.50;5004052;28;20106;-68
2021/01/10 05:20:06;;;;;;;20.30;10.73;;;;;;;-4.94;79.45;97024.44;5023969;28;20045;-69
2021/01/10 05:22:32;;;;;;;19.77;10.00;;;;;;;-4.97;79.75;97022.28;5022219;28;20041;-66
2021/01/10 05:25:11;;;;;;;23.90;11.73;;;;;;;-5.02;79.44;97028.41;5023300;28;20030;-69
2021/01/10 05:27:37;;;;;;;22.80;11.90;;;;;;;-4.89;79.61;97019.94;4989262;28;20085;-69
2021/01/10 05:30:03;;;;;;;24.73;10.45;;;;;;;-4.96;79.35;97019.34;5006072;28;20258;-66
2021/01/10 05:32:30;;;;;;;22.70;10.55;;;;;;;-4.98;79.66;97026.84;4981816;28;20430;-70
2021/01/10 05:35:00;;;;;;;24.45;11.50;;;;;;;-5.05;79.79;97029.72;5002603;28;20669;-70
2021/01/10 05:37:25;;;;;;;22.80;10.85;;;;;;;-5.08;79.85;97032.09;4996896;28;20478;-70
2021/01/10 05:39:51;;;;;;;24.88;11.07;;;;;;;-5.03;79.80;97027.59;5003543;28;20037;-69
2021/01/10 05:42:16;;;;;;;24.73;12.35;;;;;;;-5.08;80.31;97027.56;5018094;28;20049;-69
2021/01/10 05:44:42;;;;;;;25.17;11.38;;;;;;;-5.11;79.74;97019.25;5022292;28;20750;-68
2021/01/10 05:47:12;;;;;;;20.45;10.18;;;;;;;-5.08;79.67;97035.56;5004138;28;20054;-65
2021/01/10 05:49:48;;;;;;;25.80;12.55;;;;;;;-5.08;79.98;97032.91;5002602;28;20046;-68
2021/01/10 05:52:14;;;;;;;26.80;11.95;;;;;;;-4.96;79.81;97027.38;5009306;28;20050;-69
2021/01/10 05:54:41;;;;;;;23.15;10.90;;;;;;;-5.04;79.69;97030.53;5021834;28;20103;-69
2021/01/10 05:57:09;;;;;;;22.13;11.15;;;;;;;-5.14;80.13;97036.63;5017598;28;20767;-70
2021/01/10 05:59:37;;;;;;;26.67;12.82;;;;;;;-5.18;80.19;97047.00;5022525;28;20037;-69
2021/01/10 06:02:04;;;;;;;27.45;12.55;;;;;;;-5.11;79.74;97032.59;5007107;28;20050;-65
2021/01/10 06:04:30;;;;;;;24.27;11.98;;;;;;;-5.14;79.72;97038.50;5015004;28;20037;-69
2021/01/10 06:06:59;;;;;;;27.05;11.73;;;;;;;-5.12;79.53;97033.69;5001723;28;20046;-70
2021/01/10 06:09:25;;;;;;;24.17;11.35;;;;;;;-5.24;80.30;97032.03;4997065;28;20038;-68
2021/01/10 06:11:51;;;;;;;26.77;11.95;;;;;;;-5.24;80.25;97029.34;5005719;28;20152;-68
2021/01/10 06:14:24;;;;;;;25.00;11.48;;;;;;;-5.22;80.05;97037.91;5012356;28;20398;-68
2021/01/10 06:16:55;;;;;;;24.17;12.27;;;;;;;-5.22;80.24;97039.75;5010675;28;20041;-68
2021/01/10 06:19:26;;;;;;;25.30;11.77;;;;;;;-5.16;80.36;97043.28;5010270;28;20461;-69
2021/01/10 06:21:54;;;;;;;25.60;11.18;;;;;;;-5.20;79.87;97040.31;5013983;28;20102;-67
2021/01/10 06:24:23;;;;;;;25.90;11.10;;;;;;;-5.22;80.42;97037.06;5011643;28;20506;-67
2021/01/10 06:27:01;;;;;;;21.90;10.27;;;;;;;-5.26;80.13;97044.81;5016437;28;20045;-68
2021/01/10 06:29:27;;;;;;;23.15;11.48;;;;;;;-5.27;80.29;97039.75;4992013;28;20128;-68
2021/01/10 06:31:53;;;;;;;22.50;10.98;;;;;;;-5.23;80.32;97038.16;5020248;28;21789;-69
2021/01/10 06:34:20;;;;;;;25.42;11.63;;;;;;;-5.25;80.10;97033.06;5013493;28;20051;-68
2021/01/10 06:36:46;;;;;;;21.90;11.00;;;;;;;-5.31;80.18;97038.63;5012486;28;20056;-68
2021/01/10 06:39:18;;;;;;;21.92;11.55;;;;;;;-5.37;80.88;97037.78;4999011;28;20042;-70
2021/01/10 06:41:52;;;;;;;26.15;11.63;;;;;;;-5.41;80.84;97048.16;5013338;28;20507;-69
2021/01/10 06:44:19;;;;;;;25.80;12.20;;;;;;;-5.41;80.76;97050.84;4996487;28;20418;-68
2021/01/10 06:46:52;;;;;;;19.35;10.13;;;;;;;-5.38;80.68;97041.53;4999271;28;20045;-68
2021/01/10 06:49:19;;;;;;;24.42;12.43;;;;;;;-5.40;80.91;97055.13;5001702;28;20045;-67
2021/01/10 06:51:46;;;;;;;22.75;11.32;;;;;;;-5.38;80.65;97042.31;5016791;28;20111;-66
2021/01/10 06:54:12;;;;;;;26.60;11.88;;;;;;;-5.38;81.10;97041.53;5014461;28;20045;-68
2021/01/10 06:56:38;;;;;;;23.73;12.13;;;;;;;-5.41;80.55;97050.03;5013201;28;20038;-67
2021/01/10 06:59:08;;;;;;;23.77;10.43;;;;;;;-5.44;80.87;97051.38;5012067;28;20432;-65
2021/01/10 07:01:50;;;;;;;22.60;11.80;;;;;;;-5.49;80.93;97048.66;5019411;28;20060;-68
2021/01/10 07:04:17;;;;;;;23.23;11.90;;;;;;;-5.48;81.01;97036.91;5014185;28;20052;-68
2021/01/10 07:06:46;;;;;;;24.73;11.32;;;;;;;-5.43;81.06;97047.63;5012070;28;20041;-67
2021/01/10 07:09:12;;;;;;;24.92;11.90;;;;;;;-5.42;81.09;97037.75;5013526;28;20045;-67
2021/01/10 07:11:38;;;;;;;24.60;12.02;;;;;;;-5.50;80.93;97048.91;5014751;28;20045;-68
2021/01/10 07:14:04;;;;;;;23.27;10.45;;;;;;;-5.42;80.84;97038.56;4998107;28;20077;-66
2021/01/10 07:16:29;;;;;;;23.50;12.45;;;;;;;-5.43;81.24;97038.81;4994172;28;20135;-67
2021/01/10 07:18:58;;;;;;;22.48;10.60;;;;;;;-5.37;81.22;97037.78;5010304;28;20105;-67
2021/01/10 07:21:35;;;;;;;24.88;11.73;;;;;;;-5.46;80.87;97042.00;5012797;28;20232;-65
2021/01/10 07:24:12;;;;;;;25.73;11.13;;;;;;;-5.38;81.06;97039.66;5017861;28;20132;-67
2021/01/10 07:26:39;;;;;;;32.22;14.55;;;;;;;-5.39;81.29;97038.03;5012741;28;20038;-67
2021/01/10 07:29:27;;;;;;;23.40;12.85;;;;;;;-5.32;81.26;97045.03;5008044;28;20052;-65
2021/01/10 07:32:14;;;;;;;26.17;13.05;;;;;;;-5.31;81.20;97047.47;5005115;28;20060;-67
2021/01/10 07:34:45;;;;;;;28.88;12.73;;;;;;;-5.25;81.17;97051.75;5008423;28;20502;-67
2021/01/10 07:37:16;;;;;;;23.58;11.38;;;;;;;-5.30;81.27;97054.38;5006631;28;20654;-66
2021/01/10 07:40:01;;;;;;;23.65;10.65;;;;;;;-5.32;80.95;97053.06;5001148;28;20430;-68
2021/01/10 07:42:29;;;;;;;24.27;12.25;;;;;;;-5.30;80.79;97051.72;4992945;28;20044;-68
2021/01/10 07:45:23;;;;;;;24.58;12.77;;;;;;;-5.19;81.38;97056.06;4999705;28;20066;-67
2021/01/10 07:47:50;;;;;;;23.38;11.95;;;;;;;-5.15;80.91;97056.34;5002613;28;20096;-68
2021/01/10 07:50:15;;;;;;;26.48;12.07;;;;;;;-5.02;80.57;97055.13;5005771;28;20037;-68
2021/01/10 07:52:41;;;;;;;24.70;12.73;;;;;;;-4.90;79.74;97047.69;5014112;28;20099;-67
2021/01/10 07:55:30;;;;;;;33.45;14.60;;;;;;;-4.64;79.71;97050.53;5012679;28;20033;-68
2021/01/10 07:58:01;;;;;;;30.70;14.18;;;;;;;-4.54;79.47;97039.06;5012244;28;20056;-69
2021/01/10 08:00:34;;;;;;;29.38;13.50;;;;;;;-4.47;79.31;97047.66;5013205;28;20045;-69
2021/01/10 08:03:04;;;;;;;28.17;14.93;;;;;;;-4.36;79.14;97043.94;4986457;28;20049;-69
2021/01/10 08:05:41;;;;;;;28.52;13.38;;;;;;;-4.22;78.29;97039.72;4998097;28;20034;-69
2021/01/10 08:08:13;;;;;;;24.58;13.07;;;;;;;-3.99;78.29;97053.69;4998890;28;20041;-67
2021/01/10 08:10:49;;;;;;;24.80;12.20;;;;;;;-3.81;77.36;97063.09;5001740;28;20046;-69
2021/01/10 08:13:29;;;;;;;26.58;13.25;;;;;;;-3.84;77.02;97068.97;5011559;28;20525;-68
2021/01/10 08:16:00;;;;;;;31.65;14.52;;;;;;;-3.73;76.91;97064.44;5013828;28;20445;-69
2021/01/10 08:18:33;;;;;;;27.60;12.23;;;;;;;-3.57;76.21;97060.72;5001226;28;20045;-69
2021/01/10 08:21:00;;;;;;;24.80;12.48;;;;;;;-3.64;77.22;97057.50;5008745;28;20046;-67
2021/01/10 08:23:26;;;;;;;24.17;12.00;;;;;;;-3.73;77.20;97070.59;4976879;28;20038;-67
2021/01/10 08:26:04;;;;;;;24.95;12.18;;;;;;;-3.70;76.92;97061.25;5016679;28;20041;-66
2021/01/10 08:28:33;;;;;;;26.20;11.52;;;;;;;-3.31;77.27;97063.44;5030505;28;20507;-67
2021/01/10 08:31:07;;;;;;;32.30;16.67;;;;;;;-3.67;76.85;97058.84;5009270;28;20138;-67
2021/01/10 08:33:33;;;;;;;34.13;17.35;;;;;;;-3.54;77.25;97057.53;5006316;28;20292;-68
2021/01/10 08:36:11;;;;;;;28.05;14.98;;;;;;;-3.77;77.52;97058.81;5006549;28;20952;-67
2021/01/10 08:38:52;;;;;;;29.35;15.02;;;;;;;-3.86;77.54;97063.88;5002620;28;20046;-67
2021/01/10 08:41:30;;;;;;;26.58;13.82;;;;;;;-3.59;77.23;97054.84;5004567;28;20467;-66
2021/01/10 08:43:56;;;;;;;25.27;15.10;;;;;;;-3.59;76.83;97064.75;5003192;28;20057;-68
2021/01/10 08:46:24;;;;;;;26.80;14.40;;;;;;;-3.47;76.28;97059.94;4997534;28;20141;-68
2021/01/10 08:48:50;;;;;;;25.10;13.57;;;;;;;-3.70;77.19;97059.38;5006017;28;20057;-67
2021/01/10 08:51:27;;;;;;;27.35;12.98;;;;;;;-3.55;76.46;97053.22;5001456;28;20044;-67
2021/01/10 08:53:53;;;;;;;27.23;14.23;;;;;;;-3.61;76.90;97062.34;5007494;28;20046;-67
2021/01/10 08:56:20;;;;;;;29.48;12.85;;;;;;;-3.43;75.73;97066.38;5004336;28;20046;-66
2021/01/10 08:58:46;;;;;;;29.95;17.25;;;;;;;-3.48;76.41;97069.03;5015511;28;20057;-68
2021/01/10 09:01:22;;;;;;;27.58;13.13;;;;;;;-3.56;75.84;97073.06;5005187;28;20050;-67
2021/01/10 09:04:00;;;;;;;26.20;13.60;;;;;;;-3.36;75.02;97074.94;5012834;28;20131;-69
2021/01/10 09:06:35;;;;;;;26.17;12.95;;;;;;;-3.33;75.58;97074.41;5004168;28;20163;-68
2021/01/10 09:09:05;;;;;;;26.50;13.05;;;;;;;-3.09;74.36;97076.53;5011842;28;20053;-69
2021/01/10 09:11:33;;;;;;;31.90;13.70;;;;;;;-3.40;75.39;97073.03;5000338;28;20038;-68
2021/01/10 09:14:01;;;;;;;28.45;14.43;;;;;;;-3.35;75.36;97070.38;4997566;28;20402;-68
2021/01/10 09:16:30;;;;;;;23.90;12.85;;;;;;;-3.19;75.20;97071.19;5017148;28;20397;-67
2021/01/10 09:18:59;;;;;;;;;;;;;;;-3.10;74.25;97074.94;5013333;28;20037;-68
2021/01/10 09:21:28;;;;;;;24.83;12.23;;;;;;;-3.10;74.90;97070.41;5008248;28;20007;-68
2021/01/10 09:23:56;;;;;;;27.13;13.38;;;;;;;-2.88;73.65;97069.28;5017003;28;20065;-69
2021/01/10 09:26:23;;;;;;;30.48;12.32;;;;;;;-3.01;74.48;97067.16;5009968;28;20515;-69
2021/01/10 09:28:48;;;;;;;25.27;12.23;;;;;;;-2.87;73.69;97068.19;5024507;28;20053;-69
2021/01/10 09:31:14;;;;;;;27.38;13.35;;;;;;;-3.07;73.74;97059.13;5016787;28;20043;-69
2021/01/10 09:33:39;;;;;;;25.15;13.30;;;;;;;-3.09;73.68;97053.22;5008724;28;20079;-69
2021/01/10 09:36:06;;;;;;;36.53;17.33;;;;;;;-2.98;74.18;97058.59;5005758;28;20066;-66
2021/01/10 09:38:32;;;;;;;24.50;12.25;;;;;;;-2.61;72.97;97062.78;5016357;28;20034;-68
2021/01/10 09:41:03;;;;;;;29.55;14.68;;;;;;;-2.95;73.02;97061.53;4999264;28;20402;-68
2021/01/10 09:43:39;;;;;;;26.55;13.25;;;;;;;-3.04;73.69;97063.16;5001591;28;20053;-68
2021/01/10 09:46:30;;;;;;;28.83;13.23;;;;;;;-2.74;73.25;97067.66;5009752;28;20083;-66
2021/01/10 09:49:01;;;;;;;27.77;12.40;;;;;;;-2.92;73.27;97055.63;5024762;28;20041;-69
2021/01/10 09:51:50;;;;;;;29.60;13.93;;;;;;;-2.76;73.15;97059.06;5014698;28;20141;-68
2021/01/10 09:54:20;;;;;;;30.38;14.35;;;;;;;-3.02;73.41;97062.88;4999948;28;20134;-68
2021/01/10 09:56:46;;;;;;;28.73;12.48;;;;;;;-2.62;73.25;97061.19;5006756;28;20071;-68
2021/01/10 09:59:53;;;;;;;28.13;13.25;;;;;;;-2.23;71.90;97045.22;4992525;28;20077;-68
2021/01/10 10:02:25;;;;;;;27.30;12.93;;;;;;;-2.72;72.89;97060.16;4972212;28;20046;-68
2021/01/10 10:05:06;;;;;;;25.20;12.48;;;;;;;-2.30;71.68;97058.13;4983463;28;20515;-68
2021/01/10 10:07:33;;;;;;;25.52;10.98;;;;;;;-2.04;70.44;97063.38;5002647;28;20049;-68
2021/01/10 10:12:37;;;;;;;25.52;12.05;;;;;;;-2.26;70.66;97055.69;5028188;28;20175;-63
2021/01/10 10:15:07;;;;;;;28.98;13.02;;;;;;;-2.32;70.83;97047.66;5037005;28;20083;-62
2021/01/10 10:17:35;;;;;;;28.38;13.55;;;;;;;-2.12;69.90;97045.97;5043852;28;20041;-63
2021/01/10 10:20:01;;;;;;;25.98;13.93;;;;;;;-2.29;70.77;97045.50;5040520;28;20079;-59
2021/01/10 10:22:29;;;;;;;24.33;12.57;;;;;;;-1.92;70.51;97053.13;5015755;28;20037;-62
2021/01/10 10:24:56;;;;;;;25.67;12.45;;;;;;;-2.30;70.55;97044.72;5003823;28;20038;-62
2021/01/10 10:27:24;;;;;;;27.67;13.65;;;;;;;-2.47;71.49;97047.72;4999685;28;20181;-59
2021/01/10 10:29:49;;;;;;;24.15;12.32;;;;;;;-2.44;70.56;97035.66;5001918;28;20045;-58
2021/01/10 10:32:15;;;;;;;25.73;13.13;;;;;;;-2.41;71.07;97033.22;5013154;28;20406;-60
2021/01/10 10:34:41;;;;;;;28.83;14.77;;;;;;;-2.32;70.32;97023.53;5013045;28;20118;-62
2021/01/10 10:37:07;;;;;;;27.27;12.80;;;;;;;-2.26;69.52;97016.25;4998724;28;20049;-61
2021/01/10 10:39:34;;;;;;;23.33;11.45;;;;;;;-2.37;69.74;97020.84;5020165;28;20049;-59
2021/01/10 10:41:59;;;;;;;26.73;12.88;;;;;;;-2.37;71.13;97020.84;5023203;28;20438;-62
2021/01/10 10:44:24;;;;;;;22.02;10.98;;;;;;;-2.13;69.66;97009.47;5012918;28;20048;-63
2021/01/10 10:46:50;;;;;;;26.33;13.10;;;;;;;-2.29;69.84;97014.09;5004041;28;20045;-62
2021/01/10 10:49:15;;;;;;;24.63;11.75;;;;;;;-2.40;70.17;97010.66;5009289;28;20053;-62
2021/01/10 10:51:41;;;;;;;24.45;11.15;;;;;;;-2.17;69.06;97011.91;5005714;28;20045;-62
2021/01/10 10:54:08;;;;;;;21.63;11.10;;;;;;;-1.93;69.34;97011.22;5011316;28;20457;-63
2021/01/10 10:56:36;;;;;;;26.08;13.10;;;;;;;-2.08;69.98;97009.44;5019070;28;20041;-64
2021/01/10 10:59:02;;;;;;;27.00;11.50;;;;;;;-2.00;69.18;97002.69;5019788;28;20041;-63
2021/01/10 11:01:42;;;;;;;26.33;11.85;;;;;;;-2.08;69.91;97011.34;5015040;28;20057;-63
2021/01/10 11:04:08;;;;;;;24.73;11.90;;;;;;;-1.92;69.20;97005.59;4997878;28;20045;-63
2021/01/10 11:06:35;;;;;;;24.45;11.70;;;;;;;-1.89;69.07;97011.47;5021161;28;20060;-64
2021/01/10 11:09:03;;;;;;;26.08;11.18;;;;;;;-1.83;68.93;97013.84;5022493;28;20076;-65
2021/01/10 11:11:36;;;;;;;25.35;11.07;;;;;;;-1.57;66.88;97002.94;5020442;28;20132;-64
2021/01/10 11:14:03;;;;;;;21.73;9.98;;;;;;;-1.29;69.20;97001.38;5019828;28;20045;-62
2021/01/10 11:16:30;;;;;;;21.13;10.70;;;;;;;-1.02;65.45;97006.22;5025108;28;20461;-63
2021/01/10 11:18:55;;;;;;;20.63;10.05;;;;;;;-0.53;65.34;97006.25;5008544;28;20042;-64
2021/01/10 11:21:26;;;;;;;21.20;10.20;;;;;;;-0.31;62.25;96984.16;5003700;28;20091;-62
2021/01/10 11:23:51;;;;;;;24.27;10.30;;;;;;;-0.81;64.39;96993.38;5010279;28;20469;-64
2021/01/10 11:26:17;;;;;;;26.30;11.50;;;;;;;-1.01;64.85;96991.69;4993805;28;20131;-63
2021/01/10 11:28:42;;;;;;;22.92;10.60;;;;;;;-0.56;64.71;96990.66;5014333;28;20045;-64